Main page
METAR-TAF:

METAR-TAF

Airports :

St Athan, Wales

MOD St Athan

latitude: 51-24N, longitude: 003-26W, elevation: 50 m

Current weather observation

The report was made 1 hour and 1 minutes ago, at 03:50 UTC
Wind 26 kt from the West/Northwest with gusts up to 39 kt
Temperature 11°C
Humidity 66%
Pressure 1011 hPa
Visibility 10 km or more

METAR: EGDX 220350Z AUTO 29026G39KT 9999 FEW034/// BKN040/// 11/05 Q1011

Time: 05:51 (04:51 UTC)

Forecast

The report was made 12 hours and 41 minutes ago, at 16:10 UTC
Forecast valid from 21 at 16 UTC to 21 at 18 UTC
Wind 25 kt from the West/Southwest with gusts up to 35 kt
Visibility 10 km or more
Broken clouds at a height of 2500 ft
Temporary
from 21 at 16 UTC to 21 at 18 UTC
Visibility: 3000 m
Scattered clouds at a height of 600 ft
rain showers
Probability 40%
between and UTC

TAF: EGDX 211610Z 2116/2118 25025G35KT 9999 BKN025 TEMPO 2116/2118 3000 SHRA SCT006 PROB40

Weather observations and forecasts of more than 4000 airports (METAR and TAF reports).

The available stations are represented by yellow and red dots on the map.

Hover mouse over dot to see the name of the station.

Then click to see weather observations and forecasts.

To change the map : click on the green buttons with a black cross to zoom in, on the green button with a dash to zoom out, or on the green arrows for adjacent maps.


METAR-TAF: